sensor_id;sensor_type;location;lat;lon;timestamp;P1;durP1;ratioP1;P2;durP2;ratioP2
4636;SDS011;2331;48.806;9.140;2023-04-24T00:00:13;2.05;;;1.02;;
4636;SDS011;2331;48.806;9.140;2023-04-24T00:02:41;2.75;;;0.82;;
4636;SDS011;2331;48.806;9.140;2023-04-24T00:05:11;3.63;;;0.93;;
4636;SDS011;2331;48.806;9.140;2023-04-24T00:07:38;2.40;;;1.08;;
4636;SDS011;2331;48.806;9.140;2023-04-24T00:10:05;2.33;;;0.90;;
4636;SDS011;2331;48.806;9.140;2023-04-24T00:12:33;1.10;;;0.82;;
4636;SDS011;2331;48.806;9.140;2023-04-24T00:15:00;1.58;;;0.90;;
4636;SDS011;2331;48.806;9.140;2023-04-24T00:17:28;1.05;;;0.80;;
4636;SDS011;2331;48.806;9.140;2023-04-24T00:19:55;1.35;;;0.90;;
4636;SDS011;2331;48.806;9.140;2023-04-24T00:22:23;2.25;;;0.80;;
4636;SDS011;2331;48.806;9.140;2023-04-24T00:24:50;1.55;;;0.70;;
4636;SDS011;2331;48.806;9.140;2023-04-24T00:27:17;1.10;;;0.63;;
4636;SDS011;2331;48.806;9.140;2023-04-24T00:29:43;1.77;;;0.93;;
4636;SDS011;2331;48.806;9.140;2023-04-24T00:32:10;1.40;;;0.90;;
4636;SDS011;2331;48.806;9.140;2023-04-24T00:34:38;1.35;;;0.60;;
4636;SDS011;2331;48.806;9.140;2023-04-24T00:37:05;2.55;;;0.90;;
4636;SDS011;2331;48.806;9.140;2023-04-24T00:39:32;2.53;;;0.90;;
4636;SDS011;2331;48.806;9.140;2023-04-24T00:41:59;1.85;;;0.90;;
4636;SDS011;2331;48.806;9.140;2023-04-24T00:44:26;2.10;;;0.80;;
4636;SDS011;2331;48.806;9.140;2023-04-24T00:46:53;0.85;;;0.68;;
4636;SDS011;2331;48.806;9.140;2023-04-24T00:49:21;1.58;;;0.80;;
4636;SDS011;2331;48.806;9.140;2023-04-24T00:51:49;2.25;;;0.82;;
4636;SDS011;2331;48.806;9.140;2023-04-24T00:54:16;1.85;;;0.80;;
4636;SDS011;2331;48.806;9.140;2023-04-24T00:56:43;2.40;;;0.82;;
4636;SDS011;2331;48.806;9.140;2023-04-24T00:59:10;1.60;;;0.63;;
4636;SDS011;2331;48.806;9.140;2023-04-24T01:01:38;1.60;;;0.75;;
4636;SDS011;2331;48.806;9.140;2023-04-24T01:04:07;2.33;;;0.80;;
4636;SDS011;2331;48.806;9.140;2023-04-24T01:06:35;1.10;;;0.70;;
4636;SDS011;2331;48.806;9.140;2023-04-24T01:09:06;2.30;;;0.85;;
4636;SDS011;2331;48.806;9.140;2023-04-24T01:11:34;1.80;;;0.80;;
4636;SDS011;2331;48.806;9.140;2023-04-24T01:14:00;1.48;;;0.80;;
4636;SDS011;2331;48.806;9.140;2023-04-24T01:16:27;1.15;;;0.80;;
4636;SDS011;2331;48.806;9.140;2023-04-24T01:18:54;1.85;;;0.80;;
4636;SDS011;2331;48.806;9.140;2023-04-24T01:21:21;1.10;;;0.65;;
4636;SDS011;2331;48.806;9.140;2023-04-24T01:23:54;3.60;;;0.90;;
4636;SDS011;2331;48.806;9.140;2023-04-24T01:26:21;1.45;;;0.80;;
4636;SDS011;2331;48.806;9.140;2023-04-24T01:28:50;1.40;;;0.65;;
4636;SDS011;2331;48.806;9.140;2023-04-24T01:31:17;0.85;;;0.77;;
4636;SDS011;2331;48.806;9.140;2023-04-24T01:33:44;1.35;;;0.90;;
4636;SDS011;2331;48.806;9.140;2023-04-24T01:36:11;1.42;;;0.80;;
4636;SDS011;2331;48.806;9.140;2023-04-24T01:38:39;1.05;;;0.70;;
4636;SDS011;2331;48.806;9.140;2023-04-24T01:41:07;2.67;;;0.73;;
4636;SDS011;2331;48.806;9.140;2023-04-24T01:43:34;1.35;;;0.73;;
4636;SDS011;2331;48.806;9.140;2023-04-24T01:46:01;2.00;;;0.90;;
4636;SDS011;2331;48.806;9.140;2023-04-24T01:48:28;1.15;;;0.85;;
4636;SDS011;2331;48.806;9.140;2023-04-24T01:50:55;1.55;;;0.80;;
4636;SDS011;2331;48.806;9.140;2023-04-24T01:53:23;2.08;;;0.70;;
4636;SDS011;2331;48.806;9.140;2023-04-24T01:55:49;1.10;;;0.77;;
4636;SDS011;2331;48.806;9.140;2023-04-24T01:58:17;2.17;;;0.80;;
4636;SDS011;2331;48.806;9.140;2023-04-24T02:00:44;3.22;;;1.10;;
4636;SDS011;2331;48.806;9.140;2023-04-24T02:03:11;1.75;;;0.90;;
4636;SDS011;2331;48.806;9.140;2023-04-24T02:05:38;2.78;;;0.80;;
4636;SDS011;2331;48.806;9.140;2023-04-24T02:08:05;3.50;;;0.80;;
4636;SDS011;2331;48.806;9.140;2023-04-24T02:10:31;3.80;;;0.93;;
4636;SDS011;2331;48.806;9.140;2023-04-24T02:12:58;1.98;;;0.80;;
4636;SDS011;2331;48.806;9.140;2023-04-24T02:15:27;0.70;;;0.50;;
4636;SDS011;2331;48.806;9.140;2023-04-24T02:17:53;1.77;;;0.80;;
4636;SDS011;2331;48.806;9.140;2023-04-24T02:20:20;1.00;;;0.70;;
4636;SDS011;2331;48.806;9.140;2023-04-24T02:22:47;1.95;;;0.57;;
4636;SDS011;2331;48.806;9.140;2023-04-24T02:25:14;1.23;;;0.60;;
4636;SDS011;2331;48.806;9.140;2023-04-24T02:27:40;2.20;;;0.90;;
4636;SDS011;2331;48.806;9.140;2023-04-24T02:30:08;2.05;;;0.90;;
4636;SDS011;2331;48.806;9.140;2023-04-24T02:32:36;0.98;;;0.77;;
4636;SDS011;2331;48.806;9.140;2023-04-24T02:35:04;1.15;;;0.70;;
4636;SDS011;2331;48.806;9.140;2023-04-24T02:37:31;1.83;;;0.85;;
4636;SDS011;2331;48.806;9.140;2023-04-24T02:39:58;1.55;;;0.88;;
4636;SDS011;2331;48.806;9.140;2023-04-24T02:42:25;2.65;;;0.70;;
4636;SDS011;2331;48.806;9.140;2023-04-24T02:44:51;2.38;;;0.90;;
4636;SDS011;2331;48.806;9.140;2023-04-24T02:47:18;1.80;;;0.70;;
4636;SDS011;2331;48.806;9.140;2023-04-24T02:49:46;2.10;;;0.85;;
4636;SDS011;2331;48.806;9.140;2023-04-24T02:52:13;2.30;;;0.77;;
4636;SDS011;2331;48.806;9.140;2023-04-24T02:54:41;1.90;;;1.02;;
4636;SDS011;2331;48.806;9.140;2023-04-24T02:57:08;2.60;;;0.90;;
4636;SDS011;2331;48.806;9.140;2023-04-24T02:59:35;1.60;;;0.85;;
4636;SDS011;2331;48.806;9.140;2023-04-24T03:02:01;2.92;;;0.90;;
4636;SDS011;2331;48.806;9.140;2023-04-24T03:04:28;1.65;;;0.82;;
4636;SDS011;2331;48.806;9.140;2023-04-24T03:06:56;1.73;;;0.90;;
4636;SDS011;2331;48.806;9.140;2023-04-24T03:09:23;1.55;;;0.82;;
4636;SDS011;2331;48.806;9.140;2023-04-24T03:11:50;1.20;;;0.80;;
4636;SDS011;2331;48.806;9.140;2023-04-24T03:14:17;1.63;;;0.85;;
4636;SDS011;2331;48.806;9.140;2023-04-24T03:16:44;1.15;;;0.73;;
4636;SDS011;2331;48.806;9.140;2023-04-24T03:19:11;1.00;;;0.70;;
4636;SDS011;2331;48.806;9.140;2023-04-24T03:21:38;2.22;;;0.85;;
4636;SDS011;2331;48.806;9.140;2023-04-24T03:24:07;1.77;;;0.98;;
4636;SDS011;2331;48.806;9.140;2023-04-24T03:26:34;1.23;;;0.85;;
4636;SDS011;2331;48.806;9.140;2023-04-24T03:29:01;2.10;;;0.80;;
4636;SDS011;2331;48.806;9.140;2023-04-24T03:31:28;0.98;;;0.60;;
4636;SDS011;2331;48.806;9.140;2023-04-24T03:33:54;2.22;;;0.85;;
4636;SDS011;2331;48.806;9.140;2023-04-24T03:36:21;3.25;;;0.70;;
4636;SDS011;2331;48.806;9.140;2023-04-24T03:38:48;1.42;;;0.80;;
4636;SDS011;2331;48.806;9.140;2023-04-24T03:41:16;3.15;;;0.85;;
4636;SDS011;2331;48.806;9.140;2023-04-24T03:43:43;3.17;;;0.80;;
4636;SDS011;2331;48.806;9.140;2023-04-24T03:46:10;1.15;;;0.70;;
4636;SDS011;2331;48.806;9.140;2023-04-24T03:48:37;1.30;;;0.65;;
4636;SDS011;2331;48.806;9.140;2023-04-24T03:51:03;5.22;;;0.90;;
4636;SDS011;2331;48.806;9.140;2023-04-24T03:53:30;2.25;;;0.80;;
4636;SDS011;2331;48.806;9.140;2023-04-24T03:55:57;1.50;;;0.80;;
4636;SDS011;2331;48.806;9.140;2023-04-24T03:58:25;1.48;;;0.70;;
4636;SDS011;2331;48.806;9.140;2023-04-24T04:00:52;1.42;;;0.70;;
4636;SDS011;2331;48.806;9.140;2023-04-24T04:03:19;1.10;;;0.80;;
4636;SDS011;2331;48.806;9.140;2023-04-24T04:05:45;1.75;;;0.90;;
4636;SDS011;2331;48.806;9.140;2023-04-24T04:08:12;1.30;;;0.80;;
4636;SDS011;2331;48.806;9.140;2023-04-24T04:10:39;1.35;;;0.70;;
4636;SDS011;2331;48.806;9.140;2023-04-24T04:13:06;0.85;;;0.70;;
4636;SDS011;2331;48.806;9.140;2023-04-24T04:15:34;1.45;;;0.57;;
4636;SDS011;2331;48.806;9.140;2023-04-24T04:18:01;2.25;;;0.85;;
4636;SDS011;2331;48.806;9.140;2023-04-24T04:20:28;2.90;;;1.25;;
4636;SDS011;2331;48.806;9.140;2023-04-24T04:22:55;1.65;;;0.60;;
4636;SDS011;2331;48.806;9.140;2023-04-24T04:25:22;1.25;;;0.70;;
4636;SDS011;2331;48.806;9.140;2023-04-24T04:27:48;1.00;;;1.00;;
4636;SDS011;2331;48.806;9.140;2023-04-24T04:30:16;2.67;;;1.02;;
4636;SDS011;2331;48.806;9.140;2023-04-24T04:32:44;2.60;;;1.08;;
4636;SDS011;2331;48.806;9.140;2023-04-24T04:35:11;0.90;;;0.80;;
4636;SDS011;2331;48.806;9.140;2023-04-24T04:37:38;1.30;;;0.70;;
4636;SDS011;2331;48.806;9.140;2023-04-24T04:40:05;0.88;;;0.70;;
4636;SDS011;2331;48.806;9.140;2023-04-24T04:42:36;1.63;;;1.08;;
4636;SDS011;2331;48.806;9.140;2023-04-24T04:45:05;4.53;;;0.90;;
4636;SDS011;2331;48.806;9.140;2023-04-24T04:47:33;1.60;;;0.90;;
4636;SDS011;2331;48.806;9.140;2023-04-24T04:50:02;1.85;;;1.00;;
4636;SDS011;2331;48.806;9.140;2023-04-24T04:52:30;1.80;;;0.90;;
4636;SDS011;2331;48.806;9.140;2023-04-24T04:54:57;1.45;;;0.95;;
4636;SDS011;2331;48.806;9.140;2023-04-24T04:57:23;2.55;;;0.90;;
4636;SDS011;2331;48.806;9.140;2023-04-24T04:59:50;1.60;;;0.85;;
4636;SDS011;2331;48.806;9.140;2023-04-24T05:02:17;1.23;;;0.80;;
4636;SDS011;2331;48.806;9.140;2023-04-24T05:04:44;1.52;;;0.90;;
4636;SDS011;2331;48.806;9.140;2023-04-24T05:07:12;1.30;;;0.80;;
4636;SDS011;2331;48.806;9.140;2023-04-24T05:09:39;1.50;;;1.00;;
4636;SDS011;2331;48.806;9.140;2023-04-24T05:12:06;1.17;;;0.90;;
4636;SDS011;2331;48.806;9.140;2023-04-24T05:14:33;1.42;;;1.00;;
4636;SDS011;2331;48.806;9.140;2023-04-24T05:16:59;0.85;;;0.70;;
4636;SDS011;2331;48.806;9.140;2023-04-24T05:19:26;1.40;;;0.95;;
4636;SDS011;2331;48.806;9.140;2023-04-24T05:21:53;2.00;;;1.00;;
4636;SDS011;2331;48.806;9.140;2023-04-24T05:24:21;2.97;;;1.00;;
4636;SDS011;2331;48.806;9.140;2023-04-24T05:26:48;0.98;;;0.80;;
4636;SDS011;2331;48.806;9.140;2023-04-24T05:29:14;2.03;;;1.17;;
4636;SDS011;2331;48.806;9.140;2023-04-24T05:31:44;1.50;;;0.93;;
4636;SDS011;2331;48.806;9.140;2023-04-24T05:34:10;1.90;;;0.98;;
4636;SDS011;2331;48.806;9.140;2023-04-24T05:36:37;1.65;;;0.90;;
4636;SDS011;2331;48.806;9.140;2023-04-24T05:39:04;1.50;;;1.38;;
4636;SDS011;2331;48.806;9.140;2023-04-24T05:41:32;1.38;;;1.02;;
4636;SDS011;2331;48.806;9.140;2023-04-24T05:43:59;1.33;;;0.80;;
4636;SDS011;2331;48.806;9.140;2023-04-24T05:46:26;1.85;;;0.90;;
4636;SDS011;2331;48.806;9.140;2023-04-24T05:48:53;1.40;;;1.00;;
4636;SDS011;2331;48.806;9.140;2023-04-24T05:51:19;3.42;;;1.00;;
4636;SDS011;2331;48.806;9.140;2023-04-24T05:53:46;1.50;;;1.05;;
4636;SDS011;2331;48.806;9.140;2023-04-24T05:56:13;3.72;;;1.00;;
4636;SDS011;2331;48.806;9.140;2023-04-24T05:58:41;1.52;;;1.02;;
4636;SDS011;2331;48.806;9.140;2023-04-24T06:01:08;2.95;;;1.10;;
4636;SDS011;2331;48.806;9.140;2023-04-24T06:03:35;1.40;;;1.10;;
4636;SDS011;2331;48.806;9.140;2023-04-24T06:06:05;1.88;;;1.15;;
4636;SDS011;2331;48.806;9.140;2023-04-24T06:08:32;1.30;;;1.10;;
4636;SDS011;2331;48.806;9.140;2023-04-24T06:10:59;1.85;;;1.27;;
4636;SDS011;2331;48.806;9.140;2023-04-24T06:13:25;1.77;;;1.25;;
4636;SDS011;2331;48.806;9.140;2023-04-24T06:15:53;1.30;;;1.00;;
4636;SDS011;2331;48.806;9.140;2023-04-24T06:18:20;3.13;;;1.20;;
4636;SDS011;2331;48.806;9.140;2023-04-24T06:20:47;1.10;;;1.00;;
4636;SDS011;2331;48.806;9.140;2023-04-24T06:23:14;1.85;;;1.00;;
4636;SDS011;2331;48.806;9.140;2023-04-24T06:25:41;3.03;;;1.30;;
4636;SDS011;2331;48.806;9.140;2023-04-24T06:28:08;2.35;;;1.20;;
4636;SDS011;2331;48.806;9.140;2023-04-24T06:30:34;1.95;;;1.40;;
4636;SDS011;2331;48.806;9.140;2023-04-24T06:33:03;1.10;;;1.10;;
4636;SDS011;2331;48.806;9.140;2023-04-24T06:35:29;3.25;;;1.48;;
4636;SDS011;2331;48.806;9.140;2023-04-24T06:37:56;1.67;;;1.10;;
4636;SDS011;2331;48.806;9.140;2023-04-24T06:40:23;1.40;;;1.00;;
4636;SDS011;2331;48.806;9.140;2023-04-24T06:42:50;2.33;;;1.40;;
4636;SDS011;2331;48.806;9.140;2023-04-24T06:45:17;1.75;;;1.30;;
4636;SDS011;2331;48.806;9.140;2023-04-24T06:47:43;2.10;;;1.23;;
4636;SDS011;2331;48.806;9.140;2023-04-24T06:50:11;1.63;;;1.00;;
4636;SDS011;2331;48.806;9.140;2023-04-24T06:52:38;1.98;;;1.30;;
4636;SDS011;2331;48.806;9.140;2023-04-24T06:55:07;2.00;;;1.25;;
4636;SDS011;2331;48.806;9.140;2023-04-24T06:57:35;4.22;;;1.40;;
4636;SDS011;2331;48.806;9.140;2023-04-24T07:00:02;1.83;;;1.40;;
4636;SDS011;2331;48.806;9.140;2023-04-24T07:02:30;2.05;;;1.60;;
4636;SDS011;2331;48.806;9.140;2023-04-24T07:04:56;2.45;;;1.50;;
4636;SDS011;2331;48.806;9.140;2023-04-24T07:07:24;2.28;;;1.50;;
4636;SDS011;2331;48.806;9.140;2023-04-24T07:09:51;2.20;;;1.70;;
4636;SDS011;2331;48.806;9.140;2023-04-24T07:12:19;3.75;;;1.30;;
4636;SDS011;2331;48.806;9.140;2023-04-24T07:14:46;2.42;;;1.40;;
4636;SDS011;2331;48.806;9.140;2023-04-24T07:17:13;1.80;;;1.25;;
4636;SDS011;2331;48.806;9.140;2023-04-24T07:19:40;2.08;;;1.35;;
4636;SDS011;2331;48.806;9.140;2023-04-24T07:22:07;2.55;;;1.33;;
4636;SDS011;2331;48.806;9.140;2023-04-24T07:24:37;2.58;;;1.52;;
4636;SDS011;2331;48.806;9.140;2023-04-24T07:27:04;2.33;;;1.20;;
4636;SDS011;2331;48.806;9.140;2023-04-24T07:29:31;1.60;;;1.35;;
4636;SDS011;2331;48.806;9.140;2023-04-24T07:31:58;2.15;;;1.10;;
4636;SDS011;2331;48.806;9.140;2023-04-24T07:34:25;2.83;;;1.40;;
4636;SDS011;2331;48.806;9.140;2023-04-24T07:36:52;7.72;;;1.40;;
4636;SDS011;2331;48.806;9.140;2023-04-24T07:39:19;2.72;;;1.60;;
4636;SDS011;2331;48.806;9.140;2023-04-24T07:41:47;2.53;;;1.33;;
4636;SDS011;2331;48.806;9.140;2023-04-24T07:44:14;1.42;;;1.20;;
4636;SDS011;2331;48.806;9.140;2023-04-24T07:46:40;2.03;;;1.27;;
4636;SDS011;2331;48.806;9.140;2023-04-24T07:49:07;1.83;;;1.38;;
4636;SDS011;2331;48.806;9.140;2023-04-24T07:51:34;2.00;;;1.27;;
4636;SDS011;2331;48.806;9.140;2023-04-24T07:54:03;2.85;;;1.20;;
4636;SDS011;2331;48.806;9.140;2023-04-24T07:56:30;3.08;;;1.27;;
4636;SDS011;2331;48.806;9.140;2023-04-24T07:58:59;2.58;;;1.08;;
4636;SDS011;2331;48.806;9.140;2023-04-24T08:01:27;1.85;;;1.00;;
4636;SDS011;2331;48.806;9.140;2023-04-24T08:03:54;4.03;;;1.60;;
4636;SDS011;2331;48.806;9.140;2023-04-24T08:06:20;3.05;;;1.60;;
4636;SDS011;2331;48.806;9.140;2023-04-24T08:08:47;3.75;;;1.35;;
4636;SDS011;2331;48.806;9.140;2023-04-24T08:11:14;3.38;;;1.30;;
4636;SDS011;2331;48.806;9.140;2023-04-24T08:13:41;2.75;;;1.30;;
4636;SDS011;2331;48.806;9.140;2023-04-24T08:16:09;2.13;;;1.05;;
4636;SDS011;2331;48.806;9.140;2023-04-24T08:18:36;1.70;;;1.10;;
4636;SDS011;2331;48.806;9.140;2023-04-24T08:21:03;2.47;;;1.05;;
4636;SDS011;2331;48.806;9.140;2023-04-24T08:23:32;2.10;;;1.20;;
4636;SDS011;2331;48.806;9.140;2023-04-24T08:25:59;2.25;;;1.60;;
4636;SDS011;2331;48.806;9.140;2023-04-24T08:28:26;1.48;;;1.20;;
4636;SDS011;2331;48.806;9.140;2023-04-24T08:30:53;1.13;;;0.95;;
4636;SDS011;2331;48.806;9.140;2023-04-24T08:33:23;2.42;;;1.30;;
4636;SDS011;2331;48.806;9.140;2023-04-24T08:35:50;2.25;;;1.27;;
4636;SDS011;2331;48.806;9.140;2023-04-24T08:38:17;2.40;;;1.30;;
4636;SDS011;2331;48.806;9.140;2023-04-24T08:40:43;2.42;;;1.55;;
4636;SDS011;2331;48.806;9.140;2023-04-24T08:43:13;3.15;;;1.25;;
4636;SDS011;2331;48.806;9.140;2023-04-24T08:45:40;2.65;;;1.30;;
4636;SDS011;2331;48.806;9.140;2023-04-24T08:48:07;2.28;;;1.17;;
4636;SDS011;2331;48.806;9.140;2023-04-24T08:50:37;2.40;;;1.25;;
4636;SDS011;2331;48.806;9.140;2023-04-24T08:53:06;1.98;;;1.10;;
4636;SDS011;2331;48.806;9.140;2023-04-24T08:55:34;3.65;;;1.40;;
4636;SDS011;2331;48.806;9.140;2023-04-24T08:58:02;3.80;;;1.30;;
4636;SDS011;2331;48.806;9.140;2023-04-24T09:00:29;1.77;;;1.30;;
4636;SDS011;2331;48.806;9.140;2023-04-24T09:02:56;2.47;;;1.50;;
4636;SDS011;2331;48.806;9.140;2023-04-24T09:05:24;2.33;;;1.25;;
4636;SDS011;2331;48.806;9.140;2023-04-24T09:07:54;3.33;;;1.60;;
4636;SDS011;2331;48.806;9.140;2023-04-24T09:10:23;2.10;;;1.23;;
4636;SDS011;2331;48.806;9.140;2023-04-24T09:13:01;3.25;;;1.40;;
4636;SDS011;2331;48.806;9.140;2023-04-24T09:15:27;3.55;;;1.20;;
4636;SDS011;2331;48.806;9.140;2023-04-24T09:17:55;2.33;;;1.27;;
4636;SDS011;2331;48.806;9.140;2023-04-24T09:20:22;1.65;;;1.10;;
4636;SDS011;2331;48.806;9.140;2023-04-24T09:22:49;3.78;;;1.35;;
4636;SDS011;2331;48.806;9.140;2023-04-24T09:25:23;1.45;;;1.00;;
4636;SDS011;2331;48.806;9.140;2023-04-24T09:27:59;1.95;;;1.05;;
4636;SDS011;2331;48.806;9.140;2023-04-24T09:30:26;1.85;;;1.10;;
4636;SDS011;2331;48.806;9.140;2023-04-24T09:35:40;4.20;;;1.38;;
4636;SDS011;2331;48.806;9.140;2023-04-24T09:38:09;1.35;;;1.00;;
4636;SDS011;2331;48.806;9.140;2023-04-24T09:40:36;1.50;;;1.38;;
4636;SDS011;2331;48.806;9.140;2023-04-24T09:43:03;2.25;;;1.20;;
4636;SDS011;2331;48.806;9.140;2023-04-24T09:45:35;4.13;;;1.20;;
4636;SDS011;2331;48.806;9.140;2023-04-24T09:48:02;3.85;;;1.50;;
4636;SDS011;2331;48.806;9.140;2023-04-24T09:50:30;1.40;;;1.13;;
4636;SDS011;2331;48.806;9.140;2023-04-24T09:53:01;2.50;;;1.40;;
4636;SDS011;2331;48.806;9.140;2023-04-24T09:55:30;3.40;;;1.27;;
4636;SDS011;2331;48.806;9.140;2023-04-24T09:57:58;2.50;;;1.38;;
4636;SDS011;2331;48.806;9.140;2023-04-24T10:00:26;1.63;;;1.00;;
4636;SDS011;2331;48.806;9.140;2023-04-24T10:02:54;1.90;;;1.35;;
4636;SDS011;2331;48.806;9.140;2023-04-24T10:05:27;2.20;;;1.27;;
4636;SDS011;2331;48.806;9.140;2023-04-24T10:07:56;1.55;;;1.17;;
4636;SDS011;2331;48.806;9.140;2023-04-24T10:10:23;1.65;;;1.15;;
4636;SDS011;2331;48.806;9.140;2023-04-24T10:12:52;2.50;;;1.15;;
4636;SDS011;2331;48.806;9.140;2023-04-24T10:15:20;2.28;;;1.02;;
4636;SDS011;2331;48.806;9.140;2023-04-24T10:17:47;2.85;;;1.38;;
4636;SDS011;2331;48.806;9.140;2023-04-24T10:20:17;1.98;;;1.10;;
4636;SDS011;2331;48.806;9.140;2023-04-24T10:22:46;3.83;;;1.50;;
4636;SDS011;2331;48.806;9.140;2023-04-24T10:25:14;3.50;;;1.20;;
4636;SDS011;2331;48.806;9.140;2023-04-24T10:27:44;2.67;;;1.30;;
4636;SDS011;2331;48.806;9.140;2023-04-24T10:30:14;1.40;;;1.25;;
4636;SDS011;2331;48.806;9.140;2023-04-24T10:32:42;2.25;;;1.00;;
4636;SDS011;2331;48.806;9.140;2023-04-24T10:35:09;1.40;;;0.95;;
4636;SDS011;2331;48.806;9.140;2023-04-24T10:37:39;3.63;;;1.35;;
4636;SDS011;2331;48.806;9.140;2023-04-24T10:40:09;3.55;;;1.30;;
4636;SDS011;2331;48.806;9.140;2023-04-24T10:42:39;2.03;;;1.00;;
4636;SDS011;2331;48.806;9.140;2023-04-24T10:45:16;2.22;;;1.42;;
4636;SDS011;2331;48.806;9.140;2023-04-24T10:47:50;3.05;;;1.60;;
4636;SDS011;2331;48.806;9.140;2023-04-24T10:50:18;1.42;;;1.15;;
4636;SDS011;2331;48.806;9.140;2023-04-24T10:52:46;3.45;;;1.10;;
4636;SDS011;2331;48.806;9.140;2023-04-24T10:55:13;1.42;;;1.10;;
4636;SDS011;2331;48.806;9.140;2023-04-24T10:58:00;1.70;;;1.10;;
4636;SDS011;2331;48.806;9.140;2023-04-24T11:00:29;2.50;;;1.13;;
4636;SDS011;2331;48.806;9.140;2023-04-24T11:02:57;1.70;;;1.08;;
4636;SDS011;2331;48.806;9.140;2023-04-24T11:05:49;4.20;;;1.45;;
4636;SDS011;2331;48.806;9.140;2023-04-24T11:08:21;1.58;;;1.00;;
4636;SDS011;2331;48.806;9.140;2023-04-24T11:10:54;3.80;;;1.05;;
4636;SDS011;2331;48.806;9.140;2023-04-24T11:13:23;3.22;;;1.70;;
4636;SDS011;2331;48.806;9.140;2023-04-24T11:18:42;2.05;;;1.33;;
4636;SDS011;2331;48.806;9.140;2023-04-24T11:21:16;3.03;;;1.73;;
4636;SDS011;2331;48.806;9.140;2023-04-24T11:23:44;2.70;;;1.55;;
4636;SDS011;2331;48.806;9.140;2023-04-24T11:26:11;3.38;;;1.73;;
4636;SDS011;2331;48.806;9.140;2023-04-24T11:28:46;2.47;;;1.60;;
4636;SDS011;2331;48.806;9.140;2023-04-24T11:34:10;3.38;;;1.27;;
4636;SDS011;2331;48.806;9.140;2023-04-24T11:36:38;2.17;;;1.45;;
4636;SDS011;2331;48.806;9.140;2023-04-24T11:39:05;1.98;;;1.40;;
4636;SDS011;2331;48.806;9.140;2023-04-24T11:41:32;2.28;;;1.23;;
4636;SDS011;2331;48.806;9.140;2023-04-24T11:44:00;1.77;;;1.05;;
4636;SDS011;2331;48.806;9.140;2023-04-24T11:46:28;3.08;;;1.48;;
4636;SDS011;2331;48.806;9.140;2023-04-24T11:48:58;3.53;;;1.55;;
4636;SDS011;2331;48.806;9.140;2023-04-24T11:51:25;3.15;;;1.55;;
4636;SDS011;2331;48.806;9.140;2023-04-24T11:53:53;2.75;;;1.50;;
4636;SDS011;2331;48.806;9.140;2023-04-24T11:56:21;1.48;;;0.93;;
4636;SDS011;2331;48.806;9.140;2023-04-24T11:58:48;1.58;;;0.93;;
4636;SDS011;2331;48.806;9.140;2023-04-24T12:01:17;1.30;;;1.00;;
4636;SDS011;2331;48.806;9.140;2023-04-24T12:03:46;1.40;;;1.13;;
4636;SDS011;2331;48.806;9.140;2023-04-24T12:06:17;2.30;;;1.42;;
4636;SDS011;2331;48.806;9.140;2023-04-24T12:08:47;1.33;;;1.10;;
4636;SDS011;2331;48.806;9.140;2023-04-24T12:11:15;1.95;;;1.40;;
4636;SDS011;2331;48.806;9.140;2023-04-24T12:13:44;3.03;;;1.50;;
4636;SDS011;2331;48.806;9.140;2023-04-24T12:16:11;2.95;;;1.27;;
4636;SDS011;2331;48.806;9.140;2023-04-24T12:18:41;1.70;;;1.35;;
4636;SDS011;2331;48.806;9.140;2023-04-24T12:21:18;1.65;;;1.10;;
4636;SDS011;2331;48.806;9.140;2023-04-24T12:23:46;1.70;;;1.30;;
4636;SDS011;2331;48.806;9.140;2023-04-24T12:26:16;2.17;;;1.17;;
4636;SDS011;2331;48.806;9.140;2023-04-24T12:28:45;2.53;;;1.48;;
4636;SDS011;2331;48.806;9.140;2023-04-24T12:31:13;2.85;;;1.25;;
4636;SDS011;2331;48.806;9.140;2023-04-24T12:33:39;4.88;;;1.60;;
4636;SDS011;2331;48.806;9.140;2023-04-24T12:36:09;1.33;;;1.00;;
4636;SDS011;2331;48.806;9.140;2023-04-24T12:38:38;2.50;;;1.40;;
4636;SDS011;2331;48.806;9.140;2023-04-24T12:41:10;2.00;;;1.17;;
4636;SDS011;2331;48.806;9.140;2023-04-24T12:43:38;2.00;;;1.30;;
4636;SDS011;2331;48.806;9.140;2023-04-24T12:46:16;2.53;;;1.10;;
4636;SDS011;2331;48.806;9.140;2023-04-24T12:48:43;4.20;;;1.77;;
4636;SDS011;2331;48.806;9.140;2023-04-24T12:51:09;2.67;;;1.00;;
4636;SDS011;2331;48.806;9.140;2023-04-24T12:53:36;3.78;;;1.40;;
4636;SDS011;2331;48.806;9.140;2023-04-24T12:56:04;3.88;;;1.15;;
4636;SDS011;2331;48.806;9.140;2023-04-24T12:58:31;1.33;;;1.00;;
4636;SDS011;2331;48.806;9.140;2023-04-24T13:00:58;3.45;;;1.30;;
4636;SDS011;2331;48.806;9.140;2023-04-24T13:03:25;2.10;;;1.60;;
4636;SDS011;2331;48.806;9.140;2023-04-24T13:05:52;2.45;;;1.45;;
4636;SDS011;2331;48.806;9.140;2023-04-24T13:08:19;2.70;;;1.40;;
4636;SDS011;2331;48.806;9.140;2023-04-24T13:10:46;4.30;;;1.40;;
4636;SDS011;2331;48.806;9.140;2023-04-24T13:13:14;1.85;;;1.15;;
4636;SDS011;2331;48.806;9.140;2023-04-24T13:15:41;3.85;;;1.15;;
4636;SDS011;2331;48.806;9.140;2023-04-24T13:18:07;2.40;;;1.67;;
4636;SDS011;2331;48.806;9.140;2023-04-24T13:20:34;5.45;;;1.63;;
4636;SDS011;2331;48.806;9.140;2023-04-24T13:23:05;2.65;;;1.27;;
4636;SDS011;2331;48.806;9.140;2023-04-24T13:25:34;3.67;;;1.80;;
4636;SDS011;2331;48.806;9.140;2023-04-24T13:28:02;2.90;;;1.88;;
4636;SDS011;2331;48.806;9.140;2023-04-24T13:30:30;2.10;;;1.50;;
4636;SDS011;2331;48.806;9.140;2023-04-24T13:32:57;2.55;;;1.48;;
4636;SDS011;2331;48.806;9.140;2023-04-24T13:35:24;2.63;;;1.35;;
4636;SDS011;2331;48.806;9.140;2023-04-24T13:37:51;2.40;;;1.63;;
4636;SDS011;2331;48.806;9.140;2023-04-24T13:40:17;3.67;;;1.67;;
4636;SDS011;2331;48.806;9.140;2023-04-24T13:42:44;2.47;;;1.40;;
4636;SDS011;2331;48.806;9.140;2023-04-24T13:45:14;2.85;;;1.48;;
4636;SDS011;2331;48.806;9.140;2023-04-24T13:47:45;1.60;;;1.20;;
4636;SDS011;2331;48.806;9.140;2023-04-24T13:50:12;3.33;;;1.40;;
4636;SDS011;2331;48.806;9.140;2023-04-24T13:52:39;3.85;;;1.40;;
4636;SDS011;2331;48.806;9.140;2023-04-24T13:55:06;2.30;;;1.23;;
4636;SDS011;2331;48.806;9.140;2023-04-24T13:57:33;1.50;;;1.10;;
4636;SDS011;2331;48.806;9.140;2023-04-24T14:00:00;1.55;;;1.15;;
4636;SDS011;2331;48.806;9.140;2023-04-24T14:02:29;1.20;;;1.00;;
4636;SDS011;2331;48.806;9.140;2023-04-24T14:04:57;1.80;;;0.98;;
4636;SDS011;2331;48.806;9.140;2023-04-24T14:07:24;1.10;;;1.00;;
4636;SDS011;2331;48.806;9.140;2023-04-24T14:09:50;1.73;;;1.10;;
4636;SDS011;2331;48.806;9.140;2023-04-24T14:12:17;1.35;;;1.10;;
4636;SDS011;2331;48.806;9.140;2023-04-24T14:14:45;1.77;;;1.08;;
4636;SDS011;2331;48.806;9.140;2023-04-24T14:17:13;1.73;;;1.48;;
4636;SDS011;2331;48.806;9.140;2023-04-24T14:19:40;1.45;;;1.20;;
4636;SDS011;2331;48.806;9.140;2023-04-24T14:22:08;2.13;;;1.40;;
4636;SDS011;2331;48.806;9.140;2023-04-24T14:24:35;2.00;;;1.10;;
4636;SDS011;2331;48.806;9.140;2023-04-24T14:27:02;2.67;;;1.38;;
4636;SDS011;2331;48.806;9.140;2023-04-24T14:29:29;1.42;;;1.20;;
4636;SDS011;2331;48.806;9.140;2023-04-24T14:31:56;1.98;;;1.38;;
4636;SDS011;2331;48.806;9.140;2023-04-24T14:34:22;2.67;;;1.35;;
4636;SDS011;2331;48.806;9.140;2023-04-24T14:36:49;1.85;;;1.20;;
4636;SDS011;2331;48.806;9.140;2023-04-24T14:39:17;2.35;;;1.40;;
4636;SDS011;2331;48.806;9.140;2023-04-24T14:41:44;3.20;;;1.52;;
4636;SDS011;2331;48.806;9.140;2023-04-24T14:44:10;1.95;;;1.30;;
4636;SDS011;2331;48.806;9.140;2023-04-24T14:46:37;1.45;;;1.20;;
4636;SDS011;2331;48.806;9.140;2023-04-24T14:49:04;2.05;;;1.38;;
4636;SDS011;2331;48.806;9.140;2023-04-24T14:51:34;2.28;;;1.20;;
4636;SDS011;2331;48.806;9.140;2023-04-24T14:54:01;2.05;;;1.45;;
4636;SDS011;2331;48.806;9.140;2023-04-24T14:56:29;2.25;;;1.25;;
4636;SDS011;2331;48.806;9.140;2023-04-24T14:58:56;2.22;;;1.60;;
4636;SDS011;2331;48.806;9.140;2023-04-24T15:01:22;2.13;;;1.48;;
4636;SDS011;2331;48.806;9.140;2023-04-24T15:03:50;2.63;;;1.50;;
4636;SDS011;2331;48.806;9.140;2023-04-24T15:06:17;2.40;;;1.60;;
4636;SDS011;2331;48.806;9.140;2023-04-24T15:08:45;2.65;;;1.60;;
4636;SDS011;2331;48.806;9.140;2023-04-24T15:11:12;5.35;;;1.65;;
4636;SDS011;2331;48.806;9.140;2023-04-24T15:13:40;2.05;;;1.30;;
4636;SDS011;2331;48.806;9.140;2023-04-24T15:16:07;2.20;;;1.40;;
4636;SDS011;2331;48.806;9.140;2023-04-24T15:18:34;2.33;;;1.70;;
4636;SDS011;2331;48.806;9.140;2023-04-24T15:21:01;2.20;;;1.30;;
4636;SDS011;2331;48.806;9.140;2023-04-24T15:23:28;1.70;;;1.20;;
4636;SDS011;2331;48.806;9.140;2023-04-24T15:25:55;1.48;;;1.20;;